Time;durP1;ratioP1;P1;durP2;ratioP2;P2;SDS_P1;SDS_P2;PMS_P1;PMS_P2;Temp;Humidity;BMP_temperature;BMP_pressure;BME280_temperature;BME280_humidity;BME280_pressure;Samples;Min_cycle;Max_cycle;Signal;HPM_P1;HPM_P2
2023/08/11 00:00:13;;;;;;;7.18;3.83;;;;;;;-145.33;100.00;60416.63;4987705;28;20041;-23
2023/08/11 00:02:39;;;;;;;7.00;3.85;;;;;;;-145.33;100.00;60416.63;4986613;28;20034;-25
2023/08/11 00:05:05;;;;;;;5.53;3.65;;;;;;;-145.33;100.00;60416.63;4987216;28;20034;-24
2023/08/11 00:07:31;;;;;;;7.15;4.38;;;;;;;-145.33;100.00;60416.63;4987368;28;20046;-23
2023/08/11 00:09:56;;;;;;;6.68;4.22;;;;;;;-145.33;100.00;60416.63;4987517;28;20041;-24
2023/08/11 00:12:22;;;;;;;6.07;4.22;;;;;;;-145.33;100.00;60416.63;4987450;28;20038;-26
2023/08/11 00:14:47;;;;;;;8.38;4.30;;;;;;;-145.33;100.00;60416.63;4987262;28;20038;-24
2023/08/11 00:17:13;;;;;;;5.72;3.90;;;;;;;-145.33;100.00;60416.63;4987323;28;20038;-23
2023/08/11 00:19:38;;;;;;;7.07;4.75;;;;;;;-145.33;100.00;60416.63;4987251;28;20053;-25
2023/08/11 00:22:05;;;;;;;6.75;4.47;;;;;;;-145.33;100.00;60416.63;4986811;28;20061;-25
2023/08/11 00:24:31;;;;;;;5.85;4.13;;;;;;;-145.33;100.00;60416.63;4987128;28;20561;-26
2023/08/11 00:26:57;;;;;;;6.38;4.38;;;;;;;-145.33;100.00;60416.63;4987294;28;20110;-27
2023/08/11 00:29:22;;;;;;;6.85;4.55;;;;;;;-145.33;100.00;60416.63;4987007;28;20034;-24
2023/08/11 00:31:48;;;;;;;7.63;4.97;;;;;;;-145.33;100.00;60416.63;4986999;28;20402;-24
2023/08/11 00:34:13;;;;;;;7.18;4.93;;;;;;;-145.33;100.00;60416.63;4987119;28;20040;-23
2023/08/11 00:36:38;;;;;;;6.32;4.30;;;;;;;-145.33;100.00;60416.63;4987002;28;20033;-24
2023/08/11 00:39:04;;;;;;;8.95;4.85;;;;;;;-145.33;100.00;60416.63;4986982;28;20034;-26
2023/08/11 00:41:30;;;;;;;7.50;4.70;;;;;;;-145.33;100.00;60416.63;4986943;28;20034;-23
2023/08/11 00:43:55;;;;;;;6.97;4.60;;;;;;;-145.33;100.00;60416.63;4993290;28;20476;-24
2023/08/11 00:46:23;;;;;;;8.27;5.03;;;;;;;-145.33;100.00;60416.63;5006557;28;20060;-24
2023/08/11 00:48:51;;;;;;;7.35;4.75;;;;;;;-145.33;100.00;60416.63;5006312;28;20045;-24
2023/08/11 00:51:20;;;;;;;6.63;5.20;;;;;;;-145.33;100.00;60416.63;5006473;28;20132;-25
2023/08/11 00:53:48;;;;;;;6.38;5.10;;;;;;;-145.33;100.00;60416.63;4988586;28;20060;-23
2023/08/11 00:56:14;;;;;;;7.85;4.90;;;;;;;-145.33;100.00;60416.63;5005648;28;20025;-23
2023/08/11 00:58:42;;;;;;;6.75;4.63;;;;;;;-145.33;100.00;60416.63;5006204;28;20105;-24
2023/08/11 01:01:07;;;;;;;7.28;4.90;;;;;;;-145.33;100.00;60416.63;5005838;28;20084;-24
2023/08/11 01:03:34;;;;;;;7.75;4.88;;;;;;;-145.33;100.00;60416.63;5006119;28;20037;-24
2023/08/11 01:06:05;;;;;;;7.60;4.70;;;;;;;-145.33;100.00;60416.63;5005281;28;20050;-24
2023/08/11 01:08:51;;;;;;;6.00;4.63;;;;;;;-145.33;100.00;60416.63;5006080;28;20053;-25
2023/08/11 01:11:25;;;;;;;9.65;5.10;;;;;;;-145.33;100.00;60416.63;5005605;28;20042;-24
2023/08/11 01:14:00;;;;;;;7.28;5.28;;;;;;;-145.33;100.00;60416.63;5005444;28;20113;-24
2023/08/11 01:16:27;;;;;;;8.40;5.10;;;;;;;-145.33;100.00;60416.63;5005935;28;20030;-24
2023/08/11 01:18:52;;;;;;;10.00;5.32;;;;;;;-145.33;100.00;60416.63;5005791;28;20052;-24
2023/08/11 01:21:20;;;;;;;6.85;5.30;;;;;;;-145.33;100.00;60416.63;5005802;28;20428;-24
2023/08/11 01:23:45;;;;;;;7.78;5.15;;;;;;;-145.33;100.00;60416.63;5005790;28;20018;-24
2023/08/11 01:26:11;;;;;;;7.45;4.97;;;;;;;-145.33;100.00;60416.63;5006037;28;20720;-23
2023/08/11 01:28:37;;;;;;;8.60;5.47;;;;;;;-145.33;100.00;60416.63;5005931;28;20433;-23
2023/08/11 01:31:03;;;;;;;6.40;5.03;;;;;;;-145.33;100.00;60416.63;5005353;28;20517;-24
2023/08/11 01:33:28;;;;;;;15.18;5.50;;;;;;;-145.33;100.00;60416.63;5005873;28;20062;-28
2023/08/11 01:35:54;;;;;;;8.63;5.68;;;;;;;-145.33;100.00;60416.63;5005914;28;20065;-25
2023/08/11 01:38:19;;;;;;;7.32;5.30;;;;;;;-145.33;100.00;60416.63;5005621;28;20040;-24
2023/08/11 01:40:45;;;;;;;7.63;5.68;;;;;;;-145.33;100.00;60416.63;5005280;28;20555;-23
2023/08/11 01:43:12;;;;;;;7.90;5.45;;;;;;;-145.33;100.00;60416.63;5005255;28;20095;-23
2023/08/11 01:45:39;;;;;;;6.60;5.13;;;;;;;-145.33;100.00;60416.63;5005713;28;20022;-24
2023/08/11 01:48:05;;;;;;;8.35;5.55;;;;;;;-145.33;100.00;60416.63;5005508;28;20108;-25
2023/08/11 01:50:33;;;;;;;8.15;5.20;;;;;;;-145.33;100.00;60416.63;5005239;28;20045;-24
2023/08/11 01:52:58;;;;;;;7.50;5.07;;;;;;;-145.33;100.00;60416.63;5005464;28;20165;-26
2023/08/11 01:55:24;;;;;;;7.85;5.20;;;;;;;-145.33;100.00;60416.63;5005470;28;20046;-23
2023/08/11 01:57:50;;;;;;;7.38;4.97;;;;;;;-145.33;100.00;60416.63;5005629;28;20030;-24
2023/08/11 02:00:16;;;;;;;7.82;5.25;;;;;;;-145.33;100.00;60416.63;5005285;28;20026;-24
2023/08/11 02:02:43;;;;;;;8.55;5.60;;;;;;;-145.33;100.00;60416.63;5005173;28;20682;-24
2023/08/11 02:05:11;;;;;;;7.72;5.25;;;;;;;-145.33;100.00;60416.63;5005362;28;20113;-27
2023/08/11 02:07:40;;;;;;;7.57;5.32;;;;;;;-145.33;100.00;60416.63;5004874;28;20054;-24
2023/08/11 02:10:08;;;;;;;7.22;5.28;;;;;;;-145.33;100.00;60416.63;5005344;28;20030;-23
2023/08/11 02:12:34;;;;;;;8.73;5.80;;;;;;;-145.33;100.00;60416.63;5005551;28;20080;-24
2023/08/11 02:14:59;;;;;;;7.70;5.30;;;;;;;-145.33;100.00;60416.63;5005210;28;20026;-23
2023/08/11 02:17:25;;;;;;;8.82;5.68;;;;;;;-145.33;100.00;60416.63;5005678;28;20489;-24
2023/08/11 02:19:51;;;;;;;7.65;5.35;;;;;;;-145.33;100.00;60416.63;5004699;28;20033;-23
2023/08/11 02:22:16;;;;;;;8.98;5.68;;;;;;;-145.33;100.00;60416.63;5005468;28;20040;-23
2023/08/11 02:24:42;;;;;;;8.05;4.93;;;;;;;-145.33;100.00;60416.63;5005217;28;20488;-24
2023/08/11 02:27:09;;;;;;;6.90;5.18;;;;;;;-145.33;100.00;60416.63;5008273;28;20025;-24
2023/08/11 02:29:35;;;;;;;7.40;5.00;;;;;;;-145.33;100.00;60416.63;5008942;28;20406;-23
2023/08/11 02:32:03;;;;;;;8.02;4.95;;;;;;;-145.33;100.00;60416.63;5008172;28;20041;-24
2023/08/11 02:34:30;;;;;;;9.55;4.88;;;;;;;-145.33;100.00;60416.63;5008850;28;20022;-29
2023/08/11 02:36:56;;;;;;;7.50;5.40;;;;;;;-145.33;100.00;60416.63;5009121;28;20048;-23
2023/08/11 02:39:21;;;;;;;7.10;5.65;;;;;;;-145.33;100.00;60416.63;5008533;28;20101;-25
2023/08/11 02:41:46;;;;;;;7.47;5.13;;;;;;;-145.33;100.00;60416.63;5008578;28;20790;-26
2023/08/11 02:44:13;;;;;;;10.38;5.50;;;;;;;-145.33;100.00;60416.63;5008329;28;20026;-24
2023/08/11 02:46:38;;;;;;;8.57;5.35;;;;;;;-145.33;100.00;60416.63;5008638;28;20045;-23
2023/08/11 02:49:04;;;;;;;9.45;5.80;;;;;;;-145.33;100.00;60416.63;5008339;28;20034;-23
2023/08/11 02:51:29;;;;;;;8.25;5.50;;;;;;;-145.33;100.00;60416.63;5008140;28;20037;-24
2023/08/11 02:53:55;;;;;;;8.27;5.10;;;;;;;-145.33;100.00;60416.63;5008623;28;20026;-23
2023/08/11 02:56:21;;;;;;;6.30;4.95;;;;;;;-145.33;100.00;60416.63;5008404;28;20040;-23
2023/08/11 02:58:46;;;;;;;7.00;4.88;;;;;;;-145.33;100.00;60416.63;5008087;28;20030;-24
2023/08/11 03:01:12;;;;;;;8.40;5.43;;;;;;;-145.33;100.00;60416.63;5008114;28;20030;-24
2023/08/11 03:03:37;;;;;;;9.20;5.30;;;;;;;-145.33;100.00;60416.63;5008154;28;20469;-25
2023/08/11 03:06:04;;;;;;;9.13;5.50;;;;;;;-145.33;100.00;60416.63;5008127;28;20439;-23
2023/08/11 03:08:30;;;;;;;6.90;5.65;;;;;;;-145.33;100.00;60416.63;5007870;28;20033;-22
2023/08/11 03:10:58;;;;;;;7.07;5.38;;;;;;;-145.33;100.00;60416.63;5007904;28;20187;-24
2023/08/11 03:13:24;;;;;;;7.57;5.22;;;;;;;-145.33;100.00;60416.63;5008429;28;20441;-24
2023/08/11 03:15:49;;;;;;;6.57;5.10;;;;;;;-145.33;100.00;60416.63;5008104;28;20030;-26
2023/08/11 03:18:15;;;;;;;8.30;5.18;;;;;;;-145.33;100.00;60416.63;5008099;28;20025;-26
2023/08/11 03:20:40;;;;;;;6.82;4.80;;;;;;;-145.33;100.00;60416.63;5007686;28;20048;-26
2023/08/11 03:23:06;;;;;;;7.63;5.20;;;;;;;-145.33;100.00;60416.63;5007863;28;20036;-23
2023/08/11 03:25:31;;;;;;;6.43;5.10;;;;;;;-145.33;100.00;60416.63;5008099;28;20041;-23
2023/08/11 03:27:57;;;;;;;8.32;5.35;;;;;;;-145.33;100.00;60416.63;5007803;28;20455;-24
2023/08/11 03:30:23;;;;;;;7.07;4.88;;;;;;;-145.33;100.00;60416.63;5007420;28;20034;-24
2023/08/11 03:32:48;;;;;;;7.72;4.90;;;;;;;-145.33;100.00;60416.63;5007505;28;20033;-24
2023/08/11 03:35:14;;;;;;;7.05;5.00;;;;;;;-145.33;100.00;60416.63;5007723;28;20792;-25
2023/08/11 03:37:40;;;;;;;6.95;5.20;;;;;;;-145.33;100.00;60416.63;5006467;28;20056;-24
2023/08/11 03:40:09;;;;;;;7.05;5.20;;;;;;;-145.33;100.00;60416.63;5007307;28;20034;-25
2023/08/11 03:42:34;;;;;;;8.93;5.15;;;;;;;-145.33;100.00;60416.63;5022057;28;20535;-24
2023/08/11 03:45:00;;;;;;;7.80;5.80;;;;;;;-145.33;100.00;60416.63;5007543;28;20029;-23
2023/08/11 03:47:25;;;;;;;7.38;5.10;;;;;;;-145.33;100.00;60416.63;5007288;28;20463;-27
2023/08/11 03:49:51;;;;;;;7.57;5.50;;;;;;;-145.33;100.00;60416.63;5007461;28;20029;-23
2023/08/11 03:52:16;;;;;;;8.50;5.63;;;;;;;-145.33;100.00;60416.63;4989313;28;20065;-23
2023/08/11 03:54:41;;;;;;;17.05;6.70;;;;;;;-145.33;100.00;60416.63;5007407;28;20559;-24
2023/08/11 03:57:07;;;;;;;10.13;6.20;;;;;;;-145.33;100.00;60416.63;5007341;28;20022;-24
2023/08/11 03:59:33;;;;;;;9.18;6.10;;;;;;;-145.33;100.00;60416.63;5006914;28;20479;-23
2023/08/11 04:01:59;;;;;;;13.57;7.32;;;;;;;-145.33;100.00;60416.63;5007414;28;20053;-27
2023/08/11 04:04:24;;;;;;;11.15;6.65;;;;;;;-145.33;100.00;60416.63;5007012;28;20137;-23
2023/08/11 04:06:51;;;;;;;9.40;6.97;;;;;;;-145.33;100.00;60416.63;5006882;28;20046;-23
2023/08/11 04:09:18;;;;;;;9.55;6.32;;;;;;;-145.33;100.00;60416.63;5006259;28;20030;-23
2023/08/11 04:11:43;;;;;;;8.38;6.32;;;;;;;-145.33;100.00;60416.63;5006682;28;20022;-23
2023/08/11 04:14:08;;;;;;;8.32;6.47;;;;;;;-145.33;100.00;60416.63;5007039;28;20040;-23
2023/08/11 04:16:34;;;;;;;8.40;6.80;;;;;;;-145.33;100.00;60416.63;5006699;28;20026;-23
2023/08/11 04:18:59;;;;;;;8.25;6.20;;;;;;;-145.33;100.00;60416.63;5006823;28;20120;-29
2023/08/11 04:21:28;;;;;;;8.52;6.68;;;;;;;-145.33;100.00;60416.63;5006662;28;20080;-24
2023/08/11 04:23:54;;;;;;;8.10;5.72;;;;;;;-145.33;100.00;60416.63;5006691;28;20026;-25
2023/08/11 04:26:19;;;;;;;9.52;6.50;;;;;;;-145.33;100.00;60416.63;5006825;28;20103;-24
2023/08/11 04:28:44;;;;;;;8.35;6.13;;;;;;;-145.33;100.00;60416.63;5006739;28;20033;-23
2023/08/11 04:31:10;;;;;;;7.25;6.15;;;;;;;-145.33;100.00;60416.63;5006145;28;20018;-24
2023/08/11 04:33:35;;;;;;;8.48;6.25;;;;;;;-145.33;100.00;60416.63;5006646;28;20464;-23
2023/08/11 04:36:04;;;;;;;8.60;5.80;;;;;;;-145.33;100.00;60416.63;5006379;28;20032;-23
2023/08/11 04:38:30;;;;;;;8.80;5.50;;;;;;;-145.33;100.00;60416.63;5006537;28;20096;-24
2023/08/11 04:40:57;;;;;;;7.72;5.60;;;;;;;-145.33;100.00;60416.63;5006624;28;20030;-24
2023/08/11 04:43:23;;;;;;;7.45;5.85;;;;;;;-145.33;100.00;60416.63;5006109;28;20037;-25
2023/08/11 04:45:49;;;;;;;7.43;6.05;;;;;;;-145.33;100.00;60416.63;5006623;28;20022;-24
2023/08/11 04:48:15;;;;;;;9.73;6.30;;;;;;;-145.33;100.00;60416.63;5005843;28;20037;-23
2023/08/11 04:50:40;;;;;;;7.97;5.57;;;;;;;-145.33;100.00;60416.63;5006365;28;20038;-23
2023/08/11 04:53:06;;;;;;;7.88;5.70;;;;;;;-145.33;100.00;60416.63;5006311;28;20104;-24
2023/08/11 04:55:31;;;;;;;9.73;5.40;;;;;;;-145.33;100.00;60416.63;5006313;28;20029;-24
2023/08/11 04:57:57;;;;;;;7.47;5.15;;;;;;;-145.33;100.00;60416.63;5006593;28;20029;-23
2023/08/11 05:00:25;;;;;;;7.68;4.75;;;;;;;-145.33;100.00;60416.63;5005934;28;20025;-23
2023/08/11 05:02:54;;;;;;;6.32;4.70;;;;;;;-145.33;100.00;60416.63;5006277;28;20021;-27
2023/08/11 05:05:21;;;;;;;6.50;4.93;;;;;;;-145.33;100.00;60416.63;5006133;28;20402;-23
2023/08/11 05:07:46;;;;;;;8.43;4.90;;;;;;;-145.33;100.00;60416.63;5005652;28;20057;-25
2023/08/11 05:10:13;;;;;;;7.20;4.78;;;;;;;-145.33;100.00;60416.63;5005824;28;20030;-23
2023/08/11 05:12:38;;;;;;;6.95;4.53;;;;;;;-145.33;100.00;60416.63;5005408;28;20030;-24
2023/08/11 05:15:05;;;;;;;12.07;4.60;;;;;;;-145.33;100.00;60416.63;5005969;28;20095;-24
2023/08/11 05:17:31;;;;;;;5.80;3.90;;;;;;;-145.33;100.00;60416.63;5005913;28;20057;-23
2023/08/11 05:19:57;;;;;;;7.72;4.20;;;;;;;-145.33;100.00;60416.63;5005633;28;20031;-24
2023/08/11 05:22:24;;;;;;;8.82;4.03;;;;;;;-145.33;100.00;60416.63;5006105;28;20084;-23
2023/08/11 05:24:50;;;;;;;7.70;4.30;;;;;;;-145.33;100.00;60416.63;5005698;28;20049;-24
2023/08/11 05:27:15;;;;;;;8.40;4.00;;;;;;;-145.33;100.00;60416.63;5006010;28;20458;-24
2023/08/11 05:29:45;;;;;;;7.55;4.03;;;;;;;-145.33;100.00;60416.63;5005830;28;20057;-23
2023/08/11 05:32:12;;;;;;;15.30;7.53;;;;;;;-145.33;100.00;60416.63;5005587;28;20029;-23
2023/08/11 05:34:38;;;;;;;7.80;4.38;;;;;;;-145.33;100.00;60416.63;5005871;28;20026;-23
2023/08/11 05:37:04;;;;;;;13.40;7.57;;;;;;;-145.33;100.00;60416.63;5005638;28;20033;-24
2023/08/11 05:39:30;;;;;;;11.30;6.22;;;;;;;-145.33;100.00;60416.63;5005329;28;20033;-24
2023/08/11 05:41:56;;;;;;;6.20;3.53;;;;;;;-145.33;100.00;60416.63;5006069;28;20022;-24
2023/08/11 05:44:22;;;;;;;5.85;3.25;;;;;;;-145.33;100.00;60416.63;5005468;28;20479;-23
2023/08/11 05:46:47;;;;;;;7.85;3.80;;;;;;;-145.33;100.00;60416.63;5005960;28;20105;-23
2023/08/11 05:49:13;;;;;;;6.13;3.15;;;;;;;-145.33;100.00;60416.63;4987710;28;20799;-23
2023/08/11 05:51:38;;;;;;;8.88;4.15;;;;;;;-145.33;100.00;60416.63;5005392;28;20580;-23
2023/08/11 05:54:04;;;;;;;8.80;4.75;;;;;;;-145.33;100.00;60416.63;5005475;28;20030;-24
2023/08/11 05:56:29;;;;;;;5.28;3.53;;;;;;;-145.33;100.00;60416.63;5005387;28;20033;-30
2023/08/11 05:58:55;;;;;;;18.23;8.52;;;;;;;-145.33;100.00;60416.63;5005486;28;20042;-23
2023/08/11 06:01:22;;;;;;;12.55;6.97;;;;;;;-145.33;100.00;60416.63;5007654;28;20045;-23
2023/08/11 06:03:48;;;;;;;;;;;;;;;-145.33;100.00;60416.63;5009668;28;20422;-24
2023/08/11 06:06:13;;;;;;;6.50;3.25;;;;;;;-145.33;100.00;60416.63;5009127;28;20427;-23
2023/08/11 06:08:39;;;;;;;8.13;3.45;;;;;;;-145.33;100.00;60416.63;5009081;28;20042;-24
2023/08/11 06:11:04;;;;;;;5.88;3.05;;;;;;;-145.33;100.00;60416.63;5009404;28;20032;-23
2023/08/11 06:13:30;;;;;;;7.20;2.97;;;;;;;-145.33;100.00;60416.63;5009371;28;20025;-28
2023/08/11 06:15:55;;;;;;;5.07;2.90;;;;;;;-145.33;100.00;60416.63;5008878;28;20420;-23
2023/08/11 06:18:20;;;;;;;4.63;2.90;;;;;;;-145.33;100.00;60416.63;5008579;28;20034;-23
2023/08/11 06:20:47;;;;;;;4.88;2.75;;;;;;;-145.33;100.00;60416.63;5008537;28;20112;-24
2023/08/11 06:23:12;;;;;;;5.22;2.90;;;;;;;-145.33;100.00;60416.63;5009025;28;20022;-25
2023/08/11 06:25:38;;;;;;;5.93;2.90;;;;;;;-145.33;100.00;60416.63;5009113;28;20416;-24
2023/08/11 06:28:04;;;;;;;4.18;2.88;;;;;;;-145.33;100.00;60416.63;5008832;28;20227;-24
2023/08/11 06:30:30;;;;;;;5.82;3.22;;;;;;;-145.33;100.00;60416.63;5008777;28;20522;-30
2023/08/11 06:32:56;;;;;;;6.75;3.15;;;;;;;-145.33;100.00;60416.63;5008707;28;20040;-25
2023/08/11 06:35:22;;;;;;;6.10;3.63;;;;;;;-145.33;100.00;60416.63;5008662;28;20083;-25
2023/08/11 06:37:47;;;;;;;3.90;2.40;;;;;;;-145.33;100.00;60416.63;5008544;28;20026;-24
2023/08/11 06:40:16;;;;;;;7.38;3.75;;;;;;;-145.33;100.00;60416.63;5008374;28;20171;-23
2023/08/11 06:42:41;;;;;;;7.03;3.08;;;;;;;-145.33;100.00;60416.63;5008570;28;20037;-27
2023/08/11 06:45:07;;;;;;;5.00;2.97;;;;;;;-145.33;100.00;60416.63;5008273;28;20029;-23
2023/08/11 06:47:35;;;;;;;5.45;2.90;;;;;;;-145.33;100.00;60416.63;5007906;28;20038;-24
2023/08/11 06:50:03;;;;;;;4.43;2.90;;;;;;;-145.33;100.00;60416.63;5008501;28;20749;-24
2023/08/11 06:52:29;;;;;;;;;;;;;;;-145.33;100.00;60416.63;5009047;28;20064;-24
2023/08/11 06:54:54;;;;;;;5.25;2.92;;;;;;;-145.33;100.00;60416.63;5008579;28;19956;-24
2023/08/11 06:57:20;;;;;;;4.15;2.95;;;;;;;-145.33;100.00;60416.63;5008446;28;20060;-26
2023/08/11 06:59:46;;;;;;;4.68;2.88;;;;;;;-145.33;100.00;60416.63;5008374;28;20057;-23
2023/08/11 07:02:12;;;;;;;6.07;2.70;;;;;;;-145.33;100.00;60416.63;5008449;28;20114;-23
2023/08/11 07:04:39;;;;;;;4.97;2.90;;;;;;;-145.33;100.00;60416.63;5008039;28;20128;-24
2023/08/11 07:07:04;;;;;;;3.75;2.78;;;;;;;-145.33;100.00;60416.63;5007767;28;20062;-24
2023/08/11 07:09:31;;;;;;;4.65;2.63;;;;;;;-145.33;100.00;60416.63;5008033;28;20096;-24
2023/08/11 07:11:56;;;;;;;6.82;2.83;;;;;;;-145.33;100.00;60416.63;5007486;28;20025;-27
2023/08/11 07:14:22;;;;;;;5.13;2.80;;;;;;;-145.33;100.00;60416.63;5007336;28;20116;-25
2023/08/11 07:16:50;;;;;;;4.93;2.63;;;;;;;-145.33;100.00;60416.63;5008016;28;20138;-23
2023/08/11 07:19:16;;;;;;;3.45;2.22;;;;;;;-145.33;100.00;60416.63;5007995;28;20087;-23
2023/08/11 07:21:43;;;;;;;3.50;2.20;;;;;;;-145.33;100.00;60416.63;5007875;28;20042;-23
2023/08/11 07:24:10;;;;;;;5.45;2.58;;;;;;;-145.33;100.00;60416.63;5008049;28;20029;-24
2023/08/11 07:26:35;;;;;;;6.93;2.35;;;;;;;-145.33;100.00;60416.63;5007948;28;20118;-23
2023/08/11 07:29:01;;;;;;;6.90;2.42;;;;;;;-145.33;100.00;60416.63;5007235;28;20032;-24
2023/08/11 07:31:26;;;;;;;4.68;2.92;;;;;;;-145.33;100.00;60416.63;5007480;28;20472;-23
2023/08/11 07:33:51;;;;;;;7.15;2.80;;;;;;;-145.33;100.00;60416.63;5006906;28;20049;-24
2023/08/11 07:36:17;;;;;;;5.68;3.30;;;;;;;-145.33;100.00;60416.63;5007175;28;20026;-24
2023/08/11 07:38:42;;;;;;;8.05;2.40;;;;;;;-145.33;100.00;60416.63;5007576;28;20468;-24
2023/08/11 07:41:08;;;;;;;3.85;2.63;;;;;;;-145.33;100.00;60416.63;5007506;28;20559;-23
2023/08/11 07:43:33;;;;;;;4.10;2.47;;;;;;;-145.33;100.00;60416.63;5007653;28;20436;-24
2023/08/11 07:45:59;;;;;;;3.55;2.40;;;;;;;-145.33;100.00;60416.63;5007906;28;20030;-26
2023/08/11 07:48:24;;;;;;;4.45;2.20;;;;;;;-145.33;100.00;60416.63;5007311;28;20041;-24
2023/08/11 07:50:50;;;;;;;5.05;2.60;;;;;;;-145.33;100.00;60416.63;5007279;28;20022;-24
2023/08/11 07:53:15;;;;;;;5.15;2.50;;;;;;;-145.33;100.00;60416.63;5007121;28;20429;-24
2023/08/11 07:55:41;;;;;;;3.15;2.30;;;;;;;-145.33;100.00;60416.63;5007694;28;20432;-24
2023/08/11 07:58:07;;;;;;;4.32;2.42;;;;;;;-145.33;100.00;60416.63;5006999;28;20029;-27
2023/08/11 08:00:32;;;;;;;6.18;2.90;;;;;;;-145.33;100.00;60416.63;5006686;28;21162;-24
2023/08/11 08:02:58;;;;;;;3.65;2.50;;;;;;;-145.33;100.00;60416.63;5007585;28;20036;-24
2023/08/11 08:05:23;;;;;;;3.35;2.30;;;;;;;-145.33;100.00;60416.63;5006702;28;20546;-23
2023/08/11 08:07:49;;;;;;;4.75;2.40;;;;;;;-145.33;100.00;60416.63;4999063;28;20057;-22
2023/08/11 08:10:15;;;;;;;3.67;2.13;;;;;;;-145.33;100.00;60416.63;4986800;28;20037;-24
2023/08/11 08:12:46;;;;;;;3.55;2.60;;;;;;;-145.33;100.00;60416.63;4987456;28;20027;-25
2023/08/11 08:15:12;;;;;;;5.05;2.25;;;;;;;-145.33;100.00;60416.63;4987665;28;20049;-24
2023/08/11 08:17:39;;;;;;;4.40;2.30;;;;;;;-145.33;100.00;60416.63;4987293;28;20042;-24
2023/08/11 08:20:08;;;;;;;8.13;2.60;;;;;;;-145.33;100.00;60416.63;4987036;28;20062;-24
2023/08/11 08:22:33;;;;;;;5.35;2.28;;;;;;;-145.33;100.00;60416.63;4986710;28;20038;-25
2023/08/11 08:24:59;;;;;;;3.63;1.92;;;;;;;-145.33;100.00;60416.63;4986123;28;20041;-24
2023/08/11 08:27:24;;;;;;;3.67;1.83;;;;;;;-145.33;100.00;60416.63;4986881;28;20101;-23
2023/08/11 08:29:51;;;;;;;3.17;1.95;;;;;;;-145.33;100.00;60416.63;4986831;28;20045;-26
2023/08/11 08:32:17;;;;;;;4.13;2.42;;;;;;;-145.33;100.00;60416.63;4986978;28;20026;-23
2023/08/11 08:34:43;;;;;;;4.13;2.40;;;;;;;-145.33;100.00;60416.63;4986639;28;20429;-23
2023/08/11 08:37:08;;;;;;;2.92;2.13;;;;;;;-145.33;100.00;60416.63;4986973;28;20125;-23
2023/08/11 08:39:34;;;;;;;5.38;2.13;;;;;;;-145.33;100.00;60416.63;4987142;28;20034;-23
2023/08/11 08:42:03;;;;;;;4.03;2.20;;;;;;;-145.33;100.00;60416.63;4987132;28;20062;-30
2023/08/11 08:44:30;;;;;;;2.92;2.00;;;;;;;-145.33;100.00;60416.63;4986905;28;20613;-24
2023/08/11 08:46:56;;;;;;;3.70;1.90;;;;;;;-145.33;100.00;60416.63;4987093;28;20034;-31
2023/08/11 08:49:26;;;;;;;2.83;1.85;;;;;;;-145.33;100.00;60416.63;4986567;28;20941;-24
2023/08/11 08:51:52;;;;;;;2.40;1.70;;;;;;;-145.33;100.00;60416.63;4986929;28;20061;-23
2023/08/11 08:54:18;;;;;;;3.03;1.90;;;;;;;-145.33;100.00;60416.63;4986731;28;20064;-23
2023/08/11 08:56:44;;;;;;;4.53;2.08;;;;;;;-145.33;100.00;60416.63;4986287;28;20084;-24
2023/08/11 08:59:09;;;;;;;4.78;2.05;;;;;;;-145.33;100.00;60416.63;4986699;28;20628;-24
2023/08/11 09:01:36;;;;;;;4.00;1.95;;;;;;;-145.33;100.00;60416.63;4986293;28;20033;-26
2023/08/11 09:04:03;;;;;;;3.42;2.25;;;;;;;-145.33;100.00;60416.63;4986534;28;20842;-26
2023/08/11 09:06:29;;;;;;;;;;;;;;;-145.33;100.00;60416.63;4986935;28;20112;-23
2023/08/11 09:08:54;;;;;;;4.57;1.90;;;;;;;-145.33;100.00;60416.63;4986186;28;19921;-24
2023/08/11 09:11:21;;;;;;;5.45;1.80;;;;;;;-145.33;100.00;60416.63;4986502;28;20053;-23
2023/08/11 09:13:47;;;;;;;3.70;2.20;;;;;;;-145.33;100.00;60416.63;4986201;28;20034;-23
2023/08/11 09:16:14;;;;;;;2.58;1.65;;;;;;;-145.33;100.00;60416.63;4986537;28;20296;-25
2023/08/11 09:18:40;;;;;;;3.03;1.73;;;;;;;-145.33;100.00;60416.63;4986487;28;20035;-24
2023/08/11 09:21:06;;;;;;;3.90;1.85;;;;;;;-145.33;100.00;60416.63;4985525;28;20041;-23
2023/08/11 09:23:36;;;;;;;1.73;1.60;;;;;;;-145.33;100.00;60416.63;4986236;28;20477;-26
2023/08/11 09:26:02;;;;;;;2.65;1.77;;;;;;;-145.33;100.00;60416.63;4986006;28;20165;-24
2023/08/11 09:28:28;;;;;;;4.22;1.80;;;;;;;-145.33;100.00;60416.63;4986245;28;20917;-25
2023/08/11 09:30:54;;;;;;;3.75;2.00;;;;;;;-145.33;100.00;60416.63;4985658;28;20041;-29
2023/08/11 09:33:25;;;;;;;3.53;2.05;;;;;;;-145.33;100.00;60416.63;4986025;28;20037;-25
2023/08/11 09:35:51;;;;;;;3.00;1.50;;;;;;;-145.33;100.00;60416.63;4985985;28;20101;-25
2023/08/11 09:38:16;;;;;;;4.13;1.80;;;;;;;-145.33;100.00;60416.63;4986098;28;20050;-24
2023/08/11 09:40:41;;;;;;;4.47;1.73;;;;;;;-145.33;100.00;60416.63;4986209;28;20030;-24
2023/08/11 09:43:09;;;;;;;2.60;1.60;;;;;;;-145.33;100.00;60416.63;4985996;28;20022;-24
2023/08/11 09:45:34;;;;;;;3.65;1.83;;;;;;;-145.33;100.00;60416.63;4986328;28;20045;-24
2023/08/11 09:48:00;;;;;;;7.53;2.90;;;;;;;-145.33;100.00;60416.63;4985839;28;20364;-24
2023/08/11 09:50:27;;;;;;;2.53;1.85;;;;;;;-145.33;100.00;60416.63;4986116;28;20100;-25
2023/08/11 09:52:52;;;;;;;3.95;2.10;;;;;;;-145.33;100.00;60416.63;4985837;28;20031;-23
2023/08/11 09:55:20;;;;;;;2.83;1.85;;;;;;;-145.33;100.00;60416.63;4986160;28;20034;-24
2023/08/11 09:57:48;;;;;;;3.30;1.90;;;;;;;-145.33;100.00;60416.63;4985685;28;20537;-25
2023/08/11 10:00:14;;;;;;;3.35;1.83;;;;;;;-145.33;100.00;60416.63;4986182;28;20112;-25
2023/08/11 10:02:56;;;;;;;3.65;1.83;;;;;;;-145.33;100.00;60416.63;4985624;28;20109;-24
2023/08/11 10:05:26;;;;;;;5.72;1.80;;;;;;;-145.33;100.00;60416.63;4985849;28;20509;-24
2023/08/11 10:07:54;;;;;;;7.72;2.60;;;;;;;-145.33;100.00;60416.63;4985814;28;20157;-27
2023/08/11 10:10:22;;;;;;;3.25;1.83;;;;;;;-145.33;100.00;60416.63;4985834;28;20089;-24
2023/08/11 10:13:07;;;;;;;24.23;4.75;;;;;;;-145.33;100.00;60416.63;4985590;28;20035;-24
2023/08/11 10:15:34;;;;;;;2.88;1.65;;;;;;;-145.33;100.00;60416.63;4985677;28;20039;-24
2023/08/11 10:18:01;;;;;;;2.65;1.77;;;;;;;-145.33;100.00;60416.63;4986043;28;20465;-24
2023/08/11 10:20:27;;;;;;;2.20;1.65;;;;;;;-145.33;100.00;60416.63;4985480;28;20066;-23
2023/08/11 10:22:53;;;;;;;3.50;1.77;;;;;;;-145.33;100.00;60416.63;4985404;28;20117;-31
2023/08/11 10:25:19;;;;;;;2.72;1.70;;;;;;;-145.33;100.00;60416.63;4985771;28;20033;-25
2023/08/11 10:27:45;;;;;;;1.98;1.60;;;;;;;-145.33;100.00;60416.63;4985543;28;20031;-24
2023/08/11 10:30:13;;;;;;;2.22;1.50;;;;;;;-145.33;100.00;60416.63;4985906;28;20560;-24
2023/08/11 10:32:39;;;;;;;2.00;1.63;;;;;;;-145.33;100.00;60416.63;4985499;28;20030;-25
2023/08/11 10:35:06;;;;;;;2.92;1.85;;;;;;;-145.33;100.00;60416.63;4985437;28;20038;-24
2023/08/11 10:37:32;;;;;;;4.03;1.77;;;;;;;-145.33;100.00;60416.63;4986010;28;20088;-31
2023/08/11 10:40:17;;;;;;;3.25;1.73;;;;;;;-145.33;100.00;60416.63;4985536;28;20031;-24
2023/08/11 10:42:42;;;;;;;3.53;1.50;;;;;;;-145.33;100.00;60416.63;4985787;28;20571;-24
2023/08/11 10:45:12;;;;;;;2.90;1.60;;;;;;;-145.33;100.00;60416.63;4985418;28;20027;-26
2023/08/11 10:48:04;;;;;;;2.63;1.70;;;;;;;-145.33;100.00;60416.63;4987665;28;20034;-23
2023/08/11 10:50:33;;;;;;;3.85;1.80;;;;;;;-145.33;100.00;60416.63;4973367;28;20050;-25
2023/08/11 10:53:06;;;;;;;3.45;1.83;;;;;;;-145.33;100.00;60416.63;4988768;28;20041;-25
2023/08/11 10:55:39;;;;;;;2.88;1.50;;;;;;;-145.33;100.00;60416.63;4988923;28;20019;-30
2023/08/11 10:58:14;;;;;;;2.53;1.48;;;;;;;-145.33;100.00;60416.63;4989065;28;20055;-24
2023/08/11 11:00:43;;;;;;;6.85;1.80;;;;;;;-145.33;100.00;60416.63;4988649;28;20117;-24
2023/08/11 11:03:11;;;;;;;3.10;1.67;;;;;;;-145.33;100.00;60416.63;4988776;28;20557;-24
2023/08/11 11:05:37;;;;;;;2.10;1.50;;;;;;;-145.33;100.00;60416.63;4988598;28;20030;-23